sensor_id;sensor_type;location;lat;lon;timestamp;P1;durP1;ratioP1;P2;durP2;ratioP2
47589;SDS011;33316;52.298;9.056;2023-04-28T00:00:05;2.63;;;1.67;;
47589;SDS011;33316;52.298;9.056;2023-04-28T00:02:33;4.15;;;2.03;;
47589;SDS011;33316;52.298;9.056;2023-04-28T00:05:04;2.67;;;1.63;;
47589;SDS011;33316;52.298;9.056;2023-04-28T00:07:31;3.13;;;1.73;;
47589;SDS011;33316;52.298;9.056;2023-04-28T00:09:58;5.00;;;1.83;;
47589;SDS011;33316;52.298;9.056;2023-04-28T00:12:24;3.60;;;1.50;;
47589;SDS011;33316;52.298;9.056;2023-04-28T00:14:52;2.72;;;1.63;;
47589;SDS011;33316;52.298;9.056;2023-04-28T00:17:19;2.15;;;1.58;;
47589;SDS011;33316;52.298;9.056;2023-04-28T00:19:46;4.32;;;1.55;;
47589;SDS011;33316;52.298;9.056;2023-04-28T00:22:15;2.50;;;1.63;;
47589;SDS011;33316;52.298;9.056;2023-04-28T00:24:42;2.78;;;1.20;;
47589;SDS011;33316;52.298;9.056;2023-04-28T00:27:09;5.45;;;1.60;;
47589;SDS011;33316;52.298;9.056;2023-04-28T00:29:36;3.00;;;1.52;;
47589;SDS011;33316;52.298;9.056;2023-04-28T00:32:04;3.25;;;1.73;;
47589;SDS011;33316;52.298;9.056;2023-04-28T00:34:32;2.40;;;1.58;;
47589;SDS011;33316;52.298;9.056;2023-04-28T00:37:01;3.35;;;1.95;;
47589;SDS011;33316;52.298;9.056;2023-04-28T00:39:28;4.25;;;2.00;;
47589;SDS011;33316;52.298;9.056;2023-04-28T00:41:55;3.05;;;1.73;;
47589;SDS011;33316;52.298;9.056;2023-04-28T00:44:21;3.25;;;2.05;;
47589;SDS011;33316;52.298;9.056;2023-04-28T00:46:50;4.40;;;2.20;;
47589;SDS011;33316;52.298;9.056;2023-04-28T00:49:18;2.30;;;1.83;;
47589;SDS011;33316;52.298;9.056;2023-04-28T00:51:45;3.50;;;1.98;;
47589;SDS011;33316;52.298;9.056;2023-04-28T00:54:12;4.07;;;1.98;;
47589;SDS011;33316;52.298;9.056;2023-04-28T00:56:39;5.00;;;2.13;;
47589;SDS011;33316;52.298;9.056;2023-04-28T00:59:06;4.13;;;2.03;;
47589;SDS011;33316;52.298;9.056;2023-04-28T01:01:33;5.18;;;2.47;;
47589;SDS011;33316;52.298;9.056;2023-04-28T01:04:05;5.35;;;2.28;;
47589;SDS011;33316;52.298;9.056;2023-04-28T01:06:33;4.07;;;2.00;;
47589;SDS011;33316;52.298;9.056;2023-04-28T01:09:01;2.78;;;1.65;;
47589;SDS011;33316;52.298;9.056;2023-04-28T01:11:29;3.40;;;1.92;;
47589;SDS011;33316;52.298;9.056;2023-04-28T01:13:56;2.95;;;2.15;;
47589;SDS011;33316;52.298;9.056;2023-04-28T01:16:24;6.10;;;2.38;;
47589;SDS011;33316;52.298;9.056;2023-04-28T01:18:51;4.20;;;2.30;;
47589;SDS011;33316;52.298;9.056;2023-04-28T01:21:24;4.32;;;2.10;;
47589;SDS011;33316;52.298;9.056;2023-04-28T01:23:54;5.10;;;2.13;;
47589;SDS011;33316;52.298;9.056;2023-04-28T01:26:21;3.97;;;2.00;;
47589;SDS011;33316;52.298;9.056;2023-04-28T01:28:48;3.97;;;1.90;;
47589;SDS011;33316;52.298;9.056;2023-04-28T01:31:14;2.50;;;1.77;;
47589;SDS011;33316;52.298;9.056;2023-04-28T01:33:41;3.47;;;1.88;;
47589;SDS011;33316;52.298;9.056;2023-04-28T01:36:08;3.90;;;2.10;;
47589;SDS011;33316;52.298;9.056;2023-04-28T01:38:35;3.75;;;2.17;;
47589;SDS011;33316;52.298;9.056;2023-04-28T01:41:03;6.28;;;2.45;;
47589;SDS011;33316;52.298;9.056;2023-04-28T01:43:30;4.43;;;2.60;;
47589;SDS011;33316;52.298;9.056;2023-04-28T01:45:59;4.18;;;2.20;;
47589;SDS011;33316;52.298;9.056;2023-04-28T01:48:29;3.65;;;2.00;;
47589;SDS011;33316;52.298;9.056;2023-04-28T01:50:56;3.85;;;2.25;;
47589;SDS011;33316;52.298;9.056;2023-04-28T01:53:23;5.43;;;2.83;;
47589;SDS011;33316;52.298;9.056;2023-04-28T01:55:50;5.78;;;2.75;;
47589;SDS011;33316;52.298;9.056;2023-04-28T01:58:18;4.07;;;2.83;;
47589;SDS011;33316;52.298;9.056;2023-04-28T02:00:45;3.45;;;2.28;;
47589;SDS011;33316;52.298;9.056;2023-04-28T02:03:12;2.60;;;2.10;;
47589;SDS011;33316;52.298;9.056;2023-04-28T02:05:40;4.25;;;1.92;;
47589;SDS011;33316;52.298;9.056;2023-04-28T02:08:07;3.80;;;2.35;;
47589;SDS011;33316;52.298;9.056;2023-04-28T02:10:36;4.28;;;2.33;;
47589;SDS011;33316;52.298;9.056;2023-04-28T02:13:03;4.45;;;2.03;;
47589;SDS011;33316;52.298;9.056;2023-04-28T02:15:31;2.72;;;2.22;;
47589;SDS011;33316;52.298;9.056;2023-04-28T02:17:57;3.92;;;2.10;;
47589;SDS011;33316;52.298;9.056;2023-04-28T02:20:25;3.50;;;2.28;;
47589;SDS011;33316;52.298;9.056;2023-04-28T02:22:52;5.65;;;2.55;;
47589;SDS011;33316;52.298;9.056;2023-04-28T02:25:18;4.03;;;2.58;;
47589;SDS011;33316;52.298;9.056;2023-04-28T02:27:45;6.03;;;2.95;;
47589;SDS011;33316;52.298;9.056;2023-04-28T02:30:12;7.25;;;2.70;;
47589;SDS011;33316;52.298;9.056;2023-04-28T02:32:40;5.45;;;2.17;;
47589;SDS011;33316;52.298;9.056;2023-04-28T02:35:06;2.92;;;2.00;;
47589;SDS011;33316;52.298;9.056;2023-04-28T02:37:33;4.20;;;1.85;;
47589;SDS011;33316;52.298;9.056;2023-04-28T02:40:00;3.33;;;2.33;;
47589;SDS011;33316;52.298;9.056;2023-04-28T02:42:27;3.53;;;2.30;;
47589;SDS011;33316;52.298;9.056;2023-04-28T02:44:53;3.50;;;2.20;;
47589;SDS011;33316;52.298;9.056;2023-04-28T02:47:20;4.47;;;2.40;;
47589;SDS011;33316;52.298;9.056;2023-04-28T02:49:48;4.38;;;2.80;;
47589;SDS011;33316;52.298;9.056;2023-04-28T02:52:15;4.22;;;2.90;;
47589;SDS011;33316;52.298;9.056;2023-04-28T02:54:41;3.05;;;2.20;;
47589;SDS011;33316;52.298;9.056;2023-04-28T02:57:13;4.35;;;2.55;;
47589;SDS011;33316;52.298;9.056;2023-04-28T02:59:39;4.82;;;2.75;;
47589;SDS011;33316;52.298;9.056;2023-04-28T03:02:06;7.07;;;2.70;;
47589;SDS011;33316;52.298;9.056;2023-04-28T03:04:33;6.18;;;2.80;;
47589;SDS011;33316;52.298;9.056;2023-04-28T03:07:09;3.78;;;2.67;;
47589;SDS011;33316;52.298;9.056;2023-04-28T03:09:41;7.65;;;3.28;;
47589;SDS011;33316;52.298;9.056;2023-04-28T03:12:19;5.00;;;2.70;;
47589;SDS011;33316;52.298;9.056;2023-04-28T03:14:47;12.68;;;3.10;;
47589;SDS011;33316;52.298;9.056;2023-04-28T03:17:13;4.18;;;3.03;;
47589;SDS011;33316;52.298;9.056;2023-04-28T03:19:40;5.15;;;3.20;;
47589;SDS011;33316;52.298;9.056;2023-04-28T03:22:08;4.10;;;3.00;;
47589;SDS011;33316;52.298;9.056;2023-04-28T03:24:35;6.18;;;4.28;;
47589;SDS011;33316;52.298;9.056;2023-04-28T03:27:02;6.22;;;3.60;;
47589;SDS011;33316;52.298;9.056;2023-04-28T03:29:34;5.85;;;3.08;;
47589;SDS011;33316;52.298;9.056;2023-04-28T03:32:04;5.25;;;2.72;;
47589;SDS011;33316;52.298;9.056;2023-04-28T03:34:35;5.53;;;3.28;;
47589;SDS011;33316;52.298;9.056;2023-04-28T03:37:03;4.22;;;2.72;;
47589;SDS011;33316;52.298;9.056;2023-04-28T03:39:34;5.38;;;3.08;;
47589;SDS011;33316;52.298;9.056;2023-04-28T03:42:01;4.45;;;2.67;;
47589;SDS011;33316;52.298;9.056;2023-04-28T03:44:27;4.18;;;3.05;;
47589;SDS011;33316;52.298;9.056;2023-04-28T03:46:54;4.85;;;2.75;;
47589;SDS011;33316;52.298;9.056;2023-04-28T03:49:21;5.72;;;2.97;;
47589;SDS011;33316;52.298;9.056;2023-04-28T03:51:47;6.13;;;3.13;;
47589;SDS011;33316;52.298;9.056;2023-04-28T03:54:15;3.88;;;2.97;;
47589;SDS011;33316;52.298;9.056;2023-04-28T03:56:43;4.55;;;2.80;;
47589;SDS011;33316;52.298;9.056;2023-04-28T03:59:10;4.93;;;3.20;;
47589;SDS011;33316;52.298;9.056;2023-04-28T04:01:37;4.25;;;2.83;;
47589;SDS011;33316;52.298;9.056;2023-04-28T04:04:03;5.15;;;2.85;;
47589;SDS011;33316;52.298;9.056;2023-04-28T04:06:30;2.95;;;2.47;;
47589;SDS011;33316;52.298;9.056;2023-04-28T04:08:58;6.07;;;3.13;;
47589;SDS011;33316;52.298;9.056;2023-04-28T04:11:24;3.72;;;2.63;;
47589;SDS011;33316;52.298;9.056;2023-04-28T04:13:52;6.55;;;2.83;;
47589;SDS011;33316;52.298;9.056;2023-04-28T04:16:19;4.03;;;2.90;;
47589;SDS011;33316;52.298;9.056;2023-04-28T04:18:46;7.45;;;3.55;;
47589;SDS011;33316;52.298;9.056;2023-04-28T04:21:13;5.47;;;3.38;;
47589;SDS011;33316;52.298;9.056;2023-04-28T04:23:39;5.03;;;2.95;;
47589;SDS011;33316;52.298;9.056;2023-04-28T04:26:06;4.30;;;3.03;;
47589;SDS011;33316;52.298;9.056;2023-04-28T04:28:33;4.97;;;3.70;;
47589;SDS011;33316;52.298;9.056;2023-04-28T04:31:01;4.50;;;3.08;;
47589;SDS011;33316;52.298;9.056;2023-04-28T04:33:28;7.13;;;3.92;;
47589;SDS011;33316;52.298;9.056;2023-04-28T04:35:54;7.88;;;3.70;;
47589;SDS011;33316;52.298;9.056;2023-04-28T04:38:21;5.40;;;3.33;;
47589;SDS011;33316;52.298;9.056;2023-04-28T04:40:48;6.32;;;2.42;;
47589;SDS011;33316;52.298;9.056;2023-04-28T04:43:15;4.18;;;2.65;;
47589;SDS011;33316;52.298;9.056;2023-04-28T04:45:42;3.95;;;2.50;;
47589;SDS011;33316;52.298;9.056;2023-04-28T04:48:10;9.07;;;3.40;;
47589;SDS011;33316;52.298;9.056;2023-04-28T04:50:36;4.97;;;3.50;;
47589;SDS011;33316;52.298;9.056;2023-04-28T04:53:03;7.53;;;3.55;;
47589;SDS011;33316;52.298;9.056;2023-04-28T04:55:30;5.60;;;3.58;;
47589;SDS011;33316;52.298;9.056;2023-04-28T04:57:57;6.35;;;3.22;;
47589;SDS011;33316;52.298;9.056;2023-04-28T05:00:24;5.45;;;3.35;;
47589;SDS011;33316;52.298;9.056;2023-04-28T05:02:50;5.95;;;4.05;;
47589;SDS011;33316;52.298;9.056;2023-04-28T05:05:18;8.45;;;3.95;;
47589;SDS011;33316;52.298;9.056;2023-04-28T05:07:45;5.13;;;3.60;;
47589;SDS011;33316;52.298;9.056;2023-04-28T05:10:12;6.05;;;3.83;;
47589;SDS011;33316;52.298;9.056;2023-04-28T05:12:38;6.28;;;4.05;;
47589;SDS011;33316;52.298;9.056;2023-04-28T05:15:05;7.65;;;4.85;;
47589;SDS011;33316;52.298;9.056;2023-04-28T05:17:33;5.75;;;4.00;;
47589;SDS011;33316;52.298;9.056;2023-04-28T05:19:59;9.23;;;4.10;;
47589;SDS011;33316;52.298;9.056;2023-04-28T05:22:27;6.53;;;3.85;;
47589;SDS011;33316;52.298;9.056;2023-04-28T05:24:55;7.50;;;4.03;;
47589;SDS011;33316;52.298;9.056;2023-04-28T05:27:21;6.78;;;3.83;;
47589;SDS011;33316;52.298;9.056;2023-04-28T05:29:48;7.15;;;4.18;;
47589;SDS011;33316;52.298;9.056;2023-04-28T05:32:15;4.85;;;3.45;;
47589;SDS011;33316;52.298;9.056;2023-04-28T05:34:41;5.65;;;3.83;;
47589;SDS011;33316;52.298;9.056;2023-04-28T05:37:08;6.55;;;3.38;;
47589;SDS011;33316;52.298;9.056;2023-04-28T05:39:36;7.25;;;3.30;;
47589;SDS011;33316;52.298;9.056;2023-04-28T05:42:03;5.22;;;3.47;;
47589;SDS011;33316;52.298;9.056;2023-04-28T05:44:30;6.65;;;3.70;;
47589;SDS011;33316;52.298;9.056;2023-04-28T05:46:57;5.88;;;3.55;;
47589;SDS011;33316;52.298;9.056;2023-04-28T05:49:23;6.68;;;3.90;;
47589;SDS011;33316;52.298;9.056;2023-04-28T05:51:50;5.43;;;3.60;;
47589;SDS011;33316;52.298;9.056;2023-04-28T05:54:16;7.20;;;3.75;;
47589;SDS011;33316;52.298;9.056;2023-04-28T05:56:44;6.20;;;3.35;;
47589;SDS011;33316;52.298;9.056;2023-04-28T05:59:11;6.80;;;3.90;;
47589;SDS011;33316;52.298;9.056;2023-04-28T06:01:38;9.77;;;4.60;;
47589;SDS011;33316;52.298;9.056;2023-04-28T06:04:05;8.35;;;4.60;;
47589;SDS011;33316;52.298;9.056;2023-04-28T06:06:31;7.15;;;4.45;;
47589;SDS011;33316;52.298;9.056;2023-04-28T06:08:59;6.55;;;4.25;;
47589;SDS011;33316;52.298;9.056;2023-04-28T06:11:25;7.50;;;3.72;;
47589;SDS011;33316;52.298;9.056;2023-04-28T06:13:53;5.55;;;3.80;;
47589;SDS011;33316;52.298;9.056;2023-04-28T06:16:20;7.45;;;4.03;;
47589;SDS011;33316;52.298;9.056;2023-04-28T06:18:47;7.10;;;4.47;;
47589;SDS011;33316;52.298;9.056;2023-04-28T06:21:14;6.18;;;3.65;;
47589;SDS011;33316;52.298;9.056;2023-04-28T06:23:41;9.50;;;4.15;;
47589;SDS011;33316;52.298;9.056;2023-04-28T06:26:08;10.82;;;4.22;;
47589;SDS011;33316;52.298;9.056;2023-04-28T06:28:35;6.68;;;4.10;;
47589;SDS011;33316;52.298;9.056;2023-04-28T06:31:03;8.65;;;4.40;;
47589;SDS011;33316;52.298;9.056;2023-04-28T06:33:29;6.60;;;4.07;;
47589;SDS011;33316;52.298;9.056;2023-04-28T06:35:56;8.25;;;4.60;;
47589;SDS011;33316;52.298;9.056;2023-04-28T06:38:23;7.13;;;4.22;;
47589;SDS011;33316;52.298;9.056;2023-04-28T06:40:50;7.93;;;4.65;;
47589;SDS011;33316;52.298;9.056;2023-04-28T06:43:16;8.82;;;4.43;;
47589;SDS011;33316;52.298;9.056;2023-04-28T06:45:43;6.80;;;4.15;;
47589;SDS011;33316;52.298;9.056;2023-04-28T06:48:11;8.23;;;3.67;;
47589;SDS011;33316;52.298;9.056;2023-04-28T06:50:38;7.43;;;4.03;;
47589;SDS011;33316;52.298;9.056;2023-04-28T06:53:04;6.18;;;3.95;;
47589;SDS011;33316;52.298;9.056;2023-04-28T06:55:31;7.40;;;4.15;;
47589;SDS011;33316;52.298;9.056;2023-04-28T06:57:58;6.13;;;3.97;;
47589;SDS011;33316;52.298;9.056;2023-04-28T07:00:25;6.85;;;3.63;;
47589;SDS011;33316;52.298;9.056;2023-04-28T07:02:52;7.30;;;3.90;;
47589;SDS011;33316;52.298;9.056;2023-04-28T07:05:20;6.88;;;3.95;;
47589;SDS011;33316;52.298;9.056;2023-04-28T07:07:46;4.45;;;3.30;;
47589;SDS011;33316;52.298;9.056;2023-04-28T07:10:13;7.07;;;4.07;;
47589;SDS011;33316;52.298;9.056;2023-04-28T07:12:40;8.05;;;4.40;;
47589;SDS011;33316;52.298;9.056;2023-04-28T07:15:07;5.95;;;3.90;;
47589;SDS011;33316;52.298;9.056;2023-04-28T07:17:34;5.78;;;4.50;;
47589;SDS011;33316;52.298;9.056;2023-04-28T07:20:00;6.00;;;4.15;;
47589;SDS011;33316;52.298;9.056;2023-04-28T07:22:29;5.30;;;3.53;;
47589;SDS011;33316;52.298;9.056;2023-04-28T07:24:56;6.85;;;4.22;;
47589;SDS011;33316;52.298;9.056;2023-04-28T07:27:22;7.13;;;3.67;;
47589;SDS011;33316;52.298;9.056;2023-04-28T07:29:49;6.32;;;3.35;;
47589;SDS011;33316;52.298;9.056;2023-04-28T07:32:16;8.52;;;4.30;;
47589;SDS011;33316;52.298;9.056;2023-04-28T07:34:42;6.97;;;4.03;;
47589;SDS011;33316;52.298;9.056;2023-04-28T07:37:09;7.75;;;3.88;;
47589;SDS011;33316;52.298;9.056;2023-04-28T07:39:38;6.47;;;4.00;;
47589;SDS011;33316;52.298;9.056;2023-04-28T07:42:05;4.63;;;3.05;;
47589;SDS011;33316;52.298;9.056;2023-04-28T07:44:32;5.85;;;3.40;;
47589;SDS011;33316;52.298;9.056;2023-04-28T07:47:00;6.18;;;3.28;;
47589;SDS011;33316;52.298;9.056;2023-04-28T07:49:27;4.60;;;3.05;;
47589;SDS011;33316;52.298;9.056;2023-04-28T07:51:55;6.03;;;3.78;;
47589;SDS011;33316;52.298;9.056;2023-04-28T07:54:22;5.25;;;3.65;;
47589;SDS011;33316;52.298;9.056;2023-04-28T07:56:50;6.82;;;3.90;;
47589;SDS011;33316;52.298;9.056;2023-04-28T07:59:16;8.80;;;3.45;;
47589;SDS011;33316;52.298;9.056;2023-04-28T08:01:43;6.28;;;3.67;;
47589;SDS011;33316;52.298;9.056;2023-04-28T08:04:10;6.43;;;3.75;;
47589;SDS011;33316;52.298;9.056;2023-04-28T08:06:37;6.68;;;4.20;;
47589;SDS011;33316;52.298;9.056;2023-04-28T08:09:04;5.53;;;3.97;;
47589;SDS011;33316;52.298;9.056;2023-04-28T08:11:31;4.78;;;3.85;;
47589;SDS011;33316;52.298;9.056;2023-04-28T08:13:59;4.75;;;3.22;;
47589;SDS011;33316;52.298;9.056;2023-04-28T08:16:27;7.28;;;3.95;;
47589;SDS011;33316;52.298;9.056;2023-04-28T08:18:54;5.82;;;3.75;;
47589;SDS011;33316;52.298;9.056;2023-04-28T08:21:21;5.22;;;3.60;;
47589;SDS011;33316;52.298;9.056;2023-04-28T08:23:47;6.60;;;4.07;;
47589;SDS011;33316;52.298;9.056;2023-04-28T08:26:14;7.28;;;4.00;;
47589;SDS011;33316;52.298;9.056;2023-04-28T08:28:40;6.10;;;3.70;;
47589;SDS011;33316;52.298;9.056;2023-04-28T08:31:09;6.00;;;3.85;;
47589;SDS011;33316;52.298;9.056;2023-04-28T08:33:36;5.70;;;3.53;;
47589;SDS011;33316;52.298;9.056;2023-04-28T08:36:08;6.30;;;3.88;;
47589;SDS011;33316;52.298;9.056;2023-04-28T08:38:35;6.40;;;3.97;;
47589;SDS011;33316;52.298;9.056;2023-04-28T08:41:02;4.32;;;3.10;;
47589;SDS011;33316;52.298;9.056;2023-04-28T08:43:31;5.53;;;3.65;;
47589;SDS011;33316;52.298;9.056;2023-04-28T08:45:58;4.32;;;3.50;;
47589;SDS011;33316;52.298;9.056;2023-04-28T08:48:37;7.57;;;3.97;;
47589;SDS011;33316;52.298;9.056;2023-04-28T08:51:09;6.32;;;3.65;;
47589;SDS011;33316;52.298;9.056;2023-04-28T08:53:43;6.32;;;3.88;;
47589;SDS011;33316;52.298;9.056;2023-04-28T08:56:15;8.15;;;4.68;;
47589;SDS011;33316;52.298;9.056;2023-04-28T09:01:13;5.00;;;3.40;;
47589;SDS011;33316;52.298;9.056;2023-04-28T09:03:44;7.35;;;4.00;;
47589;SDS011;33316;52.298;9.056;2023-04-28T09:06:11;5.80;;;3.83;;
47589;SDS011;33316;52.298;9.056;2023-04-28T09:08:38;6.50;;;4.00;;
47589;SDS011;33316;52.298;9.056;2023-04-28T09:11:06;8.30;;;4.55;;
47589;SDS011;33316;52.298;9.056;2023-04-28T09:13:33;5.90;;;3.40;;
47589;SDS011;33316;52.298;9.056;2023-04-28T09:16:01;5.80;;;4.05;;
47589;SDS011;33316;52.298;9.056;2023-04-28T09:18:28;5.20;;;3.63;;
47589;SDS011;33316;52.298;9.056;2023-04-28T09:21:04;6.65;;;3.60;;
47589;SDS011;33316;52.298;9.056;2023-04-28T09:23:32;6.15;;;3.63;;
47589;SDS011;33316;52.298;9.056;2023-04-28T09:26:00;5.65;;;3.70;;
47589;SDS011;33316;52.298;9.056;2023-04-28T09:28:27;5.45;;;3.65;;
47589;SDS011;33316;52.298;9.056;2023-04-28T09:30:54;4.75;;;3.50;;
47589;SDS011;33316;52.298;9.056;2023-04-28T09:33:21;6.57;;;3.92;;
47589;SDS011;33316;52.298;9.056;2023-04-28T09:35:48;6.22;;;3.75;;
47589;SDS011;33316;52.298;9.056;2023-04-28T09:38:16;9.43;;;3.95;;
47589;SDS011;33316;52.298;9.056;2023-04-28T09:40:52;7.18;;;4.35;;
47589;SDS011;33316;52.298;9.056;2023-04-28T09:43:24;5.68;;;3.95;;
47589;SDS011;33316;52.298;9.056;2023-04-28T09:48:25;10.10;;;3.83;;
47589;SDS011;33316;52.298;9.056;2023-04-28T09:50:53;5.80;;;4.38;;
47589;SDS011;33316;52.298;9.056;2023-04-28T09:53:22;8.20;;;4.40;;
47589;SDS011;33316;52.298;9.056;2023-04-28T09:55:50;5.70;;;3.95;;
47589;SDS011;33316;52.298;9.056;2023-04-28T09:58:18;6.28;;;4.13;;
47589;SDS011;33316;52.298;9.056;2023-04-28T10:00:45;7.82;;;4.63;;
47589;SDS011;33316;52.298;9.056;2023-04-28T10:03:16;6.53;;;4.85;;
47589;SDS011;33316;52.298;9.056;2023-04-28T10:05:46;7.40;;;4.25;;
47589;SDS011;33316;52.298;9.056;2023-04-28T10:08:17;6.18;;;3.90;;
47589;SDS011;33316;52.298;9.056;2023-04-28T10:10:46;5.70;;;4.05;;
47589;SDS011;33316;52.298;9.056;2023-04-28T10:13:15;6.93;;;4.07;;
47589;SDS011;33316;52.298;9.056;2023-04-28T10:15:43;5.35;;;4.25;;
47589;SDS011;33316;52.298;9.056;2023-04-28T10:18:10;6.18;;;4.15;;
47589;SDS011;33316;52.298;9.056;2023-04-28T10:20:38;9.05;;;4.93;;
47589;SDS011;33316;52.298;9.056;2023-04-28T10:23:16;7.30;;;5.00;;
47589;SDS011;33316;52.298;9.056;2023-04-28T10:26:08;7.37;;;4.57;;
47589;SDS011;33316;52.298;9.056;2023-04-28T10:28:43;9.35;;;4.53;;
47589;SDS011;33316;52.298;9.056;2023-04-28T10:31:11;7.15;;;5.13;;
47589;SDS011;33316;52.298;9.056;2023-04-28T10:33:41;8.10;;;5.75;;
47589;SDS011;33316;52.298;9.056;2023-04-28T10:36:17;8.05;;;5.32;;
47589;SDS011;33316;52.298;9.056;2023-04-28T10:39:14;6.70;;;5.00;;
47589;SDS011;33316;52.298;9.056;2023-04-28T10:41:43;11.48;;;5.97;;
47589;SDS011;33316;52.298;9.056;2023-04-28T10:47:06;6.53;;;5.13;;
47589;SDS011;33316;52.298;9.056;2023-04-28T10:52:48;8.18;;;4.82;;
47589;SDS011;33316;52.298;9.056;2023-04-28T10:55:25;5.68;;;4.53;;
47589;SDS011;33316;52.298;9.056;2023-04-28T11:00:59;6.00;;;4.38;;
47589;SDS011;33316;52.298;9.056;2023-04-28T11:03:53;10.93;;;5.00;;
47589;SDS011;33316;52.298;9.056;2023-04-28T11:06:27;7.72;;;5.50;;
47589;SDS011;33316;52.298;9.056;2023-04-28T11:08:56;9.40;;;5.70;;
47589;SDS011;33316;52.298;9.056;2023-04-28T11:11:24;8.65;;;5.68;;
47589;SDS011;33316;52.298;9.056;2023-04-28T11:13:52;10.30;;;6.03;;
47589;SDS011;33316;52.298;9.056;2023-04-28T11:16:22;7.35;;;5.15;;
47589;SDS011;33316;52.298;9.056;2023-04-28T11:18:53;6.28;;;5.10;;
47589;SDS011;33316;52.298;9.056;2023-04-28T11:21:27;7.03;;;5.07;;
47589;SDS011;33316;52.298;9.056;2023-04-28T11:23:56;5.55;;;4.80;;
47589;SDS011;33316;52.298;9.056;2023-04-28T11:26:26;8.93;;;5.60;;
47589;SDS011;33316;52.298;9.056;2023-04-28T11:28:54;13.00;;;6.70;;
47589;SDS011;33316;52.298;9.056;2023-04-28T11:31:24;9.15;;;6.45;;
47589;SDS011;33316;52.298;9.056;2023-04-28T11:34:01;7.65;;;6.15;;
47589;SDS011;33316;52.298;9.056;2023-04-28T11:36:36;9.27;;;6.28;;
47589;SDS011;33316;52.298;9.056;2023-04-28T11:41:38;7.75;;;6.20;;
47589;SDS011;33316;52.298;9.056;2023-04-28T11:44:11;8.85;;;5.82;;
47589;SDS011;33316;52.298;9.056;2023-04-28T11:46:46;9.93;;;6.27;;
47589;SDS011;33316;52.298;9.056;2023-04-28T11:49:15;8.43;;;5.97;;
47589;SDS011;33316;52.298;9.056;2023-04-28T11:51:43;7.78;;;5.75;;
47589;SDS011;33316;52.298;9.056;2023-04-28T11:54:11;10.68;;;6.18;;
47589;SDS011;33316;52.298;9.056;2023-04-28T11:56:39;9.02;;;5.97;;
47589;SDS011;33316;52.298;9.056;2023-04-28T11:59:07;11.73;;;6.15;;
47589;SDS011;33316;52.298;9.056;2023-04-28T12:01:43;8.10;;;5.65;;
47589;SDS011;33316;52.298;9.056;2023-04-28T12:04:12;9.57;;;6.07;;
47589;SDS011;33316;52.298;9.056;2023-04-28T12:07:01;8.33;;;5.30;;
47589;SDS011;33316;52.298;9.056;2023-04-28T12:09:29;8.02;;;5.95;;
47589;SDS011;33316;52.298;9.056;2023-04-28T12:11:57;7.70;;;5.55;;
47589;SDS011;33316;52.298;9.056;2023-04-28T12:14:26;6.65;;;4.85;;
47589;SDS011;33316;52.298;9.056;2023-04-28T12:16:54;8.68;;;5.13;;
47589;SDS011;33316;52.298;9.056;2023-04-28T12:19:23;8.07;;;4.93;;
47589;SDS011;33316;52.298;9.056;2023-04-28T12:21:57;6.63;;;4.47;;
47589;SDS011;33316;52.298;9.056;2023-04-28T12:24:27;7.40;;;4.95;;
47589;SDS011;33316;52.298;9.056;2023-04-28T12:29:45;6.68;;;5.07;;
47589;SDS011;33316;52.298;9.056;2023-04-28T12:32:13;9.52;;;5.13;;
47589;SDS011;33316;52.298;9.056;2023-04-28T12:34:41;8.60;;;6.05;;
47589;SDS011;33316;52.298;9.056;2023-04-28T12:37:09;8.23;;;5.53;;
47589;SDS011;33316;52.298;9.056;2023-04-28T12:39:38;10.65;;;6.47;;
47589;SDS011;33316;52.298;9.056;2023-04-28T12:42:05;8.75;;;5.90;;
47589;SDS011;33316;52.298;9.056;2023-04-28T12:44:33;6.88;;;5.00;;
47589;SDS011;33316;52.298;9.056;2023-04-28T12:47:03;7.90;;;5.32;;
47589;SDS011;33316;52.298;9.056;2023-04-28T12:49:33;6.00;;;4.07;;
47589;SDS011;33316;52.298;9.056;2023-04-28T12:52:01;8.32;;;4.60;;
47589;SDS011;33316;52.298;9.056;2023-04-28T12:54:29;6.70;;;5.15;;
47589;SDS011;33316;52.298;9.056;2023-04-28T12:56:56;8.57;;;5.55;;
47589;SDS011;33316;52.298;9.056;2023-04-28T12:59:22;6.68;;;5.28;;
47589;SDS011;33316;52.298;9.056;2023-04-28T13:01:49;7.20;;;5.28;;
47589;SDS011;33316;52.298;9.056;2023-04-28T13:04:16;8.27;;;5.65;;
47589;SDS011;33316;52.298;9.056;2023-04-28T13:06:43;9.23;;;5.22;;
47589;SDS011;33316;52.298;9.056;2023-04-28T13:09:11;7.10;;;5.03;;
47589;SDS011;33316;52.298;9.056;2023-04-28T13:11:38;6.53;;;4.60;;
47589;SDS011;33316;52.298;9.056;2023-04-28T13:14:05;6.63;;;4.75;;
47589;SDS011;33316;52.298;9.056;2023-04-28T13:16:32;9.50;;;5.35;;
47589;SDS011;33316;52.298;9.056;2023-04-28T13:19:00;7.88;;;5.47;;
47589;SDS011;33316;52.298;9.056;2023-04-28T13:21:26;7.05;;;5.95;;
47589;SDS011;33316;52.298;9.056;2023-04-28T13:23:53;8.23;;;5.63;;
47589;SDS011;33316;52.298;9.056;2023-04-28T13:26:22;7.03;;;5.07;;
47589;SDS011;33316;52.298;9.056;2023-04-28T13:28:49;8.38;;;5.60;;
47589;SDS011;33316;52.298;9.056;2023-04-28T13:31:16;9.43;;;6.90;;
47589;SDS011;33316;52.298;9.056;2023-04-28T13:33:43;7.70;;;5.75;;
47589;SDS011;33316;52.298;9.056;2023-04-28T13:36:13;10.07;;;6.18;;
47589;SDS011;33316;52.298;9.056;2023-04-28T13:38:39;6.35;;;4.82;;
47589;SDS011;33316;52.298;9.056;2023-04-28T13:41:10;7.53;;;5.53;;
47589;SDS011;33316;52.298;9.056;2023-04-28T13:43:37;6.10;;;4.82;;
47589;SDS011;33316;52.298;9.056;2023-04-28T13:46:04;7.40;;;5.53;;
47589;SDS011;33316;52.298;9.056;2023-04-28T13:48:33;8.45;;;5.70;;
47589;SDS011;33316;52.298;9.056;2023-04-28T13:51:00;8.93;;;6.25;;
47589;SDS011;33316;52.298;9.056;2023-04-28T13:53:27;10.10;;;5.57;;
47589;SDS011;33316;52.298;9.056;2023-04-28T13:55:54;8.95;;;5.85;;
47589;SDS011;33316;52.298;9.056;2023-04-28T13:58:21;9.30;;;6.20;;
47589;SDS011;33316;52.298;9.056;2023-04-28T14:00:49;7.95;;;6.18;;
47589;SDS011;33316;52.298;9.056;2023-04-28T14:03:18;8.35;;;5.47;;
47589;SDS011;33316;52.298;9.056;2023-04-28T14:05:48;8.18;;;5.78;;
47589;SDS011;33316;52.298;9.056;2023-04-28T14:08:16;7.93;;;6.15;;
47589;SDS011;33316;52.298;9.056;2023-04-28T14:10:44;7.53;;;5.80;;
47589;SDS011;33316;52.298;9.056;2023-04-28T14:13:14;9.13;;;6.65;;
47589;SDS011;33316;52.298;9.056;2023-04-28T14:15:41;8.07;;;6.37;;
47589;SDS011;33316;52.298;9.056;2023-04-28T14:18:10;7.15;;;5.40;;
47589;SDS011;33316;52.298;9.056;2023-04-28T14:20:44;8.73;;;6.20;;
47589;SDS011;33316;52.298;9.056;2023-04-28T14:23:11;9.05;;;6.78;;
47589;SDS011;33316;52.298;9.056;2023-04-28T14:25:39;8.40;;;6.53;;
47589;SDS011;33316;52.298;9.056;2023-04-28T14:28:06;8.48;;;6.20;;
47589;SDS011;33316;52.298;9.056;2023-04-28T14:30:33;9.95;;;6.63;;
47589;SDS011;33316;52.298;9.056;2023-04-28T14:33:00;8.82;;;6.45;;
47589;SDS011;33316;52.298;9.056;2023-04-28T14:35:28;6.35;;;5.72;;
47589;SDS011;33316;52.298;9.056;2023-04-28T14:37:58;8.52;;;6.15;;
47589;SDS011;33316;52.298;9.056;2023-04-28T14:40:25;10.23;;;6.93;;
47589;SDS011;33316;52.298;9.056;2023-04-28T14:42:52;9.77;;;6.40;;
47589;SDS011;33316;52.298;9.056;2023-04-28T14:45:18;9.68;;;6.85;;
47589;SDS011;33316;52.298;9.056;2023-04-28T14:47:48;9.65;;;6.55;;
47589;SDS011;33316;52.298;9.056;2023-04-28T14:50:18;7.60;;;6.05;;
47589;SDS011;33316;52.298;9.056;2023-04-28T14:52:46;7.93;;;5.95;;
47589;SDS011;33316;52.298;9.056;2023-04-28T14:55:13;7.35;;;5.85;;
47589;SDS011;33316;52.298;9.056;2023-04-28T14:57:40;7.10;;;5.40;;
47589;SDS011;33316;52.298;9.056;2023-04-28T15:00:07;8.40;;;5.90;;
47589;SDS011;33316;52.298;9.056;2023-04-28T15:02:34;9.07;;;6.65;;
47589;SDS011;33316;52.298;9.056;2023-04-28T15:05:06;7.53;;;5.75;;
47589;SDS011;33316;52.298;9.056;2023-04-28T15:07:33;6.95;;;5.40;;
47589;SDS011;33316;52.298;9.056;2023-04-28T15:10:07;9.55;;;6.78;;
47589;SDS011;33316;52.298;9.056;2023-04-28T15:12:34;10.40;;;7.10;;